Santa Isabel, Brazil
Current Conditions -  °F | °C
As of 12:00 AM on Saturday 25 Oct 2014 (Local Time) from SBGR Reporting Station
Scattered Clouds Scattered Clouds  
Wind Chill: 66°   Ceiling: Unl
Heat Index: 66°   Visibility: 6mi
Dew Point: 63°   Wind: 2mph
Humidity: 88%   Direction: 90°E
Pressure: 30.06"   Gusts: NA
Location:  23.32°S, 46.22°W
Report Text: SBGR 250200Z 09002KT 9000 SCT011 19/17 Q1018
Loading
Personal Weather Stations






























Interactive Weather Map New forecast layout! Learn more

10-Day Weather Forecast

Advertisements
Track Severe Weather on mobile